sensor_id;sensor_type;location;lat;lon;timestamp;pressure;altitude;pressure_sealevel;temperature;humidity
44839;BME280;30576;42.098;24.876;2022-09-09T00:01:49;99921.38;;;19.05;65.08
44839;BME280;30576;42.098;24.876;2022-09-09T00:12:51;99929.03;;;19.13;65.22
44839;BME280;30576;42.098;24.876;2022-09-09T00:15:37;99916.16;;;19.02;65.35
44839;BME280;30576;42.098;24.876;2022-09-09T00:21:04;99933.53;;;19.12;64.94
44839;BME280;30576;42.098;24.876;2022-09-09T00:23:34;99925.50;;;18.73;65.28
44839;BME280;30576;42.098;24.876;2022-09-09T00:26:14;99932.72;;;18.50;66.88
44839;BME280;30576;42.098;24.876;2022-09-09T00:28:57;99873.72;;;18.15;67.18
44839;BME280;30576;42.098;24.876;2022-09-09T00:31:28;99922.66;;;18.57;66.73
44839;BME280;30576;42.098;24.876;2022-09-09T00:34:00;99908.53;;;18.53;67.07
44839;BME280;30576;42.098;24.876;2022-09-09T00:36:28;99885.88;;;18.43;66.95
44839;BME280;30576;42.098;24.876;2022-09-09T00:38:59;99909.66;;;18.68;66.97
44839;BME280;30576;42.098;24.876;2022-09-09T00:41:49;99930.63;;;18.77;66.93
44839;BME280;30576;42.098;24.876;2022-09-09T00:44:35;99899.31;;;18.60;66.68
44839;BME280;30576;42.098;24.876;2022-09-09T00:53:09;99932.50;;;18.75;66.98
44839;BME280;30576;42.098;24.876;2022-09-09T00:55:45;99913.00;;;18.73;67.24
44839;BME280;30576;42.098;24.876;2022-09-09T00:58:13;99926.06;;;18.79;67.07
44839;BME280;30576;42.098;24.876;2022-09-09T01:00:50;99913.94;;;18.72;66.80
44839;BME280;30576;42.098;24.876;2022-09-09T01:03:27;99941.66;;;18.90;67.04
44839;BME280;30576;42.098;24.876;2022-09-09T01:06:15;99932.09;;;18.64;67.01
44839;BME280;30576;42.098;24.876;2022-09-09T01:11:25;99940.97;;;18.03;67.22
44839;BME280;30576;42.098;24.876;2022-09-09T01:17:06;99931.41;;;17.97;69.08
44839;BME280;30576;42.098;24.876;2022-09-09T01:19:38;99933.50;;;17.91;69.29
44839;BME280;30576;42.098;24.876;2022-09-09T01:22:37;99937.16;;;18.08;68.99
44839;BME280;30576;42.098;24.876;2022-09-09T01:28:05;99939.69;;;18.12;69.23
44839;BME280;30576;42.098;24.876;2022-09-09T01:30:35;99894.41;;;17.88;69.26
44839;BME280;30576;42.098;24.876;2022-09-09T01:33:01;99940.28;;;18.20;68.75
44839;BME280;30576;42.098;24.876;2022-09-09T01:35:37;99860.66;;;17.87;68.56
44839;BME280;30576;42.098;24.876;2022-09-09T01:38:05;99905.91;;;18.12;68.57
44839;BME280;30576;42.098;24.876;2022-09-09T01:40:31;99935.47;;;18.28;68.34
44839;BME280;30576;42.098;24.876;2022-09-09T01:42:57;99943.41;;;18.30;68.61
44839;BME280;30576;42.098;24.876;2022-09-09T01:45:23;99905.66;;;17.96;68.70
44839;BME280;30576;42.098;24.876;2022-09-09T01:47:50;99932.19;;;18.21;68.23
44839;BME280;30576;42.098;24.876;2022-09-09T01:50:17;99908.22;;;18.20;67.43
44839;BME280;30576;42.098;24.876;2022-09-09T01:52:47;99913.00;;;18.12;67.86
44839;BME280;30576;42.098;24.876;2022-09-09T01:55:14;99918.84;;;18.21;68.04
44839;BME280;30576;42.098;24.876;2022-09-09T01:57:50;99934.19;;;18.37;67.29
44839;BME280;30576;42.098;24.876;2022-09-09T02:00:17;99912.47;;;18.03;67.61
44839;BME280;30576;42.098;24.876;2022-09-09T02:07:59;99913.66;;;17.96;67.09
44839;BME280;30576;42.098;24.876;2022-09-09T02:10:33;99894.84;;;17.99;67.34
44839;BME280;30576;42.098;24.876;2022-09-09T02:13:13;99914.81;;;17.91;67.18
44839;BME280;30576;42.098;24.876;2022-09-09T02:15:58;99942.81;;;18.01;67.26
44839;BME280;30576;42.098;24.876;2022-09-09T02:21:11;99935.34;;;17.87;67.87
44839;BME280;30576;42.098;24.876;2022-09-09T02:23:37;99883.78;;;17.66;68.11
44839;BME280;30576;42.098;24.876;2022-09-09T02:26:05;99906.06;;;17.85;67.88
44839;BME280;30576;42.098;24.876;2022-09-09T02:28:34;99929.94;;;17.90;68.36
44839;BME280;30576;42.098;24.876;2022-09-09T02:31:01;99892.66;;;17.87;67.78
44839;BME280;30576;42.098;24.876;2022-09-09T02:33:30;99934.63;;;17.83;68.41
44839;BME280;30576;42.098;24.876;2022-09-09T02:36:00;99931.41;;;17.97;67.83
44839;BME280;30576;42.098;24.876;2022-09-09T02:38:32;99912.44;;;17.83;68.10
44839;BME280;30576;42.098;24.876;2022-09-09T02:41:00;99896.84;;;17.72;68.29
44839;BME280;30576;42.098;24.876;2022-09-09T02:43:32;99910.00;;;17.77;67.90
44839;BME280;30576;42.098;24.876;2022-09-09T02:46:06;99925.84;;;17.81;67.46
44839;BME280;30576;42.098;24.876;2022-09-09T02:49:04;99929.06;;;17.67;68.03
44839;BME280;30576;42.098;24.876;2022-09-09T02:51:57;99902.38;;;17.45;68.13
44839;BME280;30576;42.098;24.876;2022-09-09T02:54:31;99919.75;;;17.33;68.57
44839;BME280;30576;42.098;24.876;2022-09-09T02:57:10;99907.13;;;17.15;68.96
44839;BME280;30576;42.098;24.876;2022-09-09T02:59:36;99923.47;;;17.06;68.46
44839;BME280;30576;42.098;24.876;2022-09-09T03:02:02;99933.66;;;16.94;69.72
44839;BME280;30576;42.098;24.876;2022-09-09T03:04:27;99924.50;;;17.02;69.79
44839;BME280;30576;42.098;24.876;2022-09-09T03:06:53;99931.34;;;17.09;69.73
44839;BME280;30576;42.098;24.876;2022-09-09T03:09:19;99924.63;;;16.98;69.59
44839;BME280;30576;42.098;24.876;2022-09-09T03:11:44;99915.72;;;16.99;69.39
44839;BME280;30576;42.098;24.876;2022-09-09T03:14:10;99909.84;;;16.90;69.92
44839;BME280;30576;42.098;24.876;2022-09-09T03:16:37;99922.19;;;16.92;70.32
44839;BME280;30576;42.098;24.876;2022-09-09T03:19:04;99913.84;;;17.02;69.89
44839;BME280;30576;42.098;24.876;2022-09-09T03:21:29;99878.00;;;16.85;70.15
44839;BME280;30576;42.098;24.876;2022-09-09T03:23:55;99943.75;;;17.33;69.54
44839;BME280;30576;42.098;24.876;2022-09-09T03:26:21;99943.91;;;17.29;69.85
44839;BME280;30576;42.098;24.876;2022-09-09T03:28:46;99916.91;;;17.14;69.97
44839;BME280;30576;42.098;24.876;2022-09-09T03:31:12;99932.09;;;17.12;69.79
44839;BME280;30576;42.098;24.876;2022-09-09T03:33:38;99934.94;;;17.08;70.02
44839;BME280;30576;42.098;24.876;2022-09-09T03:36:04;99943.56;;;17.14;70.48
44839;BME280;30576;42.098;24.876;2022-09-09T03:38:29;99901.25;;;16.81;70.79
44839;BME280;30576;42.098;24.876;2022-09-09T03:40:56;99941.25;;;17.05;70.82
44839;BME280;30576;42.098;24.876;2022-09-09T03:43:26;99952.78;;;17.29;70.46
44839;BME280;30576;42.098;24.876;2022-09-09T03:45:52;99932.06;;;17.36;69.88
44839;BME280;30576;42.098;24.876;2022-09-09T03:48:18;99955.06;;;17.39;70.22
44839;BME280;30576;42.098;24.876;2022-09-09T03:50:49;99947.31;;;17.32;70.13
44839;BME280;30576;42.098;24.876;2022-09-09T03:53:16;99950.50;;;17.18;70.70
44839;BME280;30576;42.098;24.876;2022-09-09T03:55:46;99946.16;;;17.16;70.64
44839;BME280;30576;42.098;24.876;2022-09-09T03:58:13;99942.81;;;17.11;71.07
44839;BME280;30576;42.098;24.876;2022-09-09T04:00:40;99965.19;;;16.81;72.58
44839;BME280;30576;42.098;24.876;2022-09-09T04:03:11;99951.56;;;17.14;71.77
44839;BME280;30576;42.098;24.876;2022-09-09T04:05:37;99925.78;;;16.91;71.83
44839;BME280;30576;42.098;24.876;2022-09-09T04:08:08;99933.38;;;17.02;71.28
44839;BME280;30576;42.098;24.876;2022-09-09T04:10:34;99927.84;;;16.83;72.05
44839;BME280;30576;42.098;24.876;2022-09-09T04:13:03;99932.50;;;17.02;71.88
44839;BME280;30576;42.098;24.876;2022-09-09T04:15:29;99946.59;;;17.29;71.16
44839;BME280;30576;42.098;24.876;2022-09-09T04:17:55;99942.78;;;17.34;71.29
44839;BME280;30576;42.098;24.876;2022-09-09T04:20:21;99954.63;;;17.27;71.94
44839;BME280;30576;42.098;24.876;2022-09-09T04:22:47;99933.38;;;17.26;71.80
44839;BME280;30576;42.098;24.876;2022-09-09T04:25:12;99940.94;;;17.36;71.53
44839;BME280;30576;42.098;24.876;2022-09-09T04:27:38;99965.50;;;17.45;71.40
44839;BME280;30576;42.098;24.876;2022-09-09T04:30:04;99925.50;;;17.23;70.73
44839;BME280;30576;42.098;24.876;2022-09-09T04:32:32;99952.66;;;17.32;71.15
44839;BME280;30576;42.098;24.876;2022-09-09T04:34:58;99937.50;;;17.33;70.50
44839;BME280;30576;42.098;24.876;2022-09-09T04:37:23;99965.88;;;17.58;70.46
44839;BME280;30576;42.098;24.876;2022-09-09T04:39:50;99947.09;;;17.39;70.75
44839;BME280;30576;42.098;24.876;2022-09-09T04:42:15;99942.22;;;17.26;71.58
44839;BME280;30576;42.098;24.876;2022-09-09T04:44:42;99961.03;;;17.45;71.49
44839;BME280;30576;42.098;24.876;2022-09-09T04:47:09;99954.53;;;17.52;71.57
44839;BME280;30576;42.098;24.876;2022-09-09T04:49:35;99952.84;;;17.50;72.19
44839;BME280;30576;42.098;24.876;2022-09-09T04:52:02;99950.31;;;17.47;72.78
44839;BME280;30576;42.098;24.876;2022-09-09T04:54:29;99975.38;;;17.65;72.53
44839;BME280;30576;42.098;24.876;2022-09-09T04:56:54;99949.31;;;17.71;71.54
44839;BME280;30576;42.098;24.876;2022-09-09T04:59:20;99953.38;;;17.82;71.06
44839;BME280;30576;42.098;24.876;2022-09-09T05:01:47;99982.41;;;18.12;70.94
44839;BME280;30576;42.098;24.876;2022-09-09T05:04:13;99991.91;;;18.19;71.21
44839;BME280;30576;42.098;24.876;2022-09-09T05:06:40;99974.13;;;17.97;71.14
44839;BME280;30576;42.098;24.876;2022-09-09T05:09:05;99958.81;;;17.79;70.99
44839;BME280;30576;42.098;24.876;2022-09-09T05:11:32;99999.72;;;17.79;71.97
44839;BME280;30576;42.098;24.876;2022-09-09T05:14:02;99967.88;;;17.75;72.39
44839;BME280;30576;42.098;24.876;2022-09-09T05:16:28;99920.28;;;17.64;71.45
44839;BME280;30576;42.098;24.876;2022-09-09T05:18:54;99947.06;;;18.06;70.42
44839;BME280;30576;42.098;24.876;2022-09-09T05:21:20;99966.19;;;18.59;69.12
44839;BME280;30576;42.098;24.876;2022-09-09T05:23:46;99961.81;;;18.56;68.81
44839;BME280;30576;42.098;24.876;2022-09-09T05:26:14;99968.59;;;18.86;66.84
44839;BME280;30576;42.098;24.876;2022-09-09T05:28:40;99964.38;;;18.80;66.63
44839;BME280;30576;42.098;24.876;2022-09-09T05:31:08;99948.69;;;19.12;66.52
44839;BME280;30576;42.098;24.876;2022-09-09T05:33:35;99932.53;;;19.34;65.08
44839;BME280;30576;42.098;24.876;2022-09-09T05:36:06;99973.03;;;19.63;63.71
44839;BME280;30576;42.098;24.876;2022-09-09T05:38:33;99936.31;;;19.66;62.40
44839;BME280;30576;42.098;24.876;2022-09-09T05:40:59;99985.72;;;20.15;61.46
44839;BME280;30576;42.098;24.876;2022-09-09T05:43:28;99955.97;;;19.84;60.77
44839;BME280;30576;42.098;24.876;2022-09-09T05:46:09;99980.28;;;19.99;60.14
44839;BME280;30576;42.098;24.876;2022-09-09T05:48:42;99957.44;;;19.73;61.03
44839;BME280;30576;42.098;24.876;2022-09-09T05:51:23;99965.31;;;20.12;58.88
44839;BME280;30576;42.098;24.876;2022-09-09T05:53:50;99969.19;;;20.42;58.28
44839;BME280;30576;42.098;24.876;2022-09-09T05:56:22;99949.38;;;20.62;57.63
44839;BME280;30576;42.098;24.876;2022-09-09T05:58:49;99965.81;;;21.06;56.96
44839;BME280;30576;42.098;24.876;2022-09-09T06:01:16;99976.47;;;21.24;56.54
44839;BME280;30576;42.098;24.876;2022-09-09T06:03:43;99964.03;;;21.39;56.30
44839;BME280;30576;42.098;24.876;2022-09-09T06:06:12;99956.41;;;21.15;56.27
44839;BME280;30576;42.098;24.876;2022-09-09T06:08:40;99981.00;;;21.39;56.30
44839;BME280;30576;42.098;24.876;2022-09-09T06:11:09;99951.94;;;21.48;55.61
44839;BME280;30576;42.098;24.876;2022-09-09T06:13:35;99964.28;;;21.68;54.50
44839;BME280;30576;42.098;24.876;2022-09-09T06:16:02;99942.34;;;21.75;54.92
44839;BME280;30576;42.098;24.876;2022-09-09T06:18:28;99921.41;;;21.96;54.62
44839;BME280;30576;42.098;24.876;2022-09-09T06:20:59;99960.16;;;22.83;53.09
44839;BME280;30576;42.098;24.876;2022-09-09T06:23:26;99927.75;;;22.70;51.88
44839;BME280;30576;42.098;24.876;2022-09-09T06:26:15;99945.69;;;23.15;51.07
44839;BME280;30576;42.098;24.876;2022-09-09T06:28:44;99949.03;;;23.74;49.90
44839;BME280;30576;42.098;24.876;2022-09-09T06:31:12;99927.00;;;23.40;50.12
44839;BME280;30576;42.098;24.876;2022-09-09T06:33:39;99953.44;;;23.75;49.89
44839;BME280;30576;42.098;24.876;2022-09-09T06:36:10;99949.34;;;23.70;50.11
44839;BME280;30576;42.098;24.876;2022-09-09T06:38:36;99925.84;;;23.72;49.85
44839;BME280;30576;42.098;24.876;2022-09-09T06:41:02;99919.63;;;23.99;48.76
44839;BME280;30576;42.098;24.876;2022-09-09T06:43:28;99951.44;;;23.79;49.59
44839;BME280;30576;42.098;24.876;2022-09-09T06:48:23;99938.38;;;23.17;52.92
44839;BME280;30576;42.098;24.876;2022-09-09T06:51:07;99926.09;;;23.13;50.92
44839;BME280;30576;42.098;24.876;2022-09-09T06:53:34;99949.34;;;23.70;51.19
44839;BME280;30576;42.098;24.876;2022-09-09T06:56:01;99962.19;;;24.46;49.48
44839;BME280;30576;42.098;24.876;2022-09-09T06:58:27;99957.22;;;24.27;47.65
44839;BME280;30576;42.098;24.876;2022-09-09T07:01:07;99957.91;;;24.04;48.77
44839;BME280;30576;42.098;24.876;2022-09-09T07:03:33;99965.28;;;24.27;49.57
44839;BME280;30576;42.098;24.876;2022-09-09T07:05:59;99946.66;;;24.37;48.26
44839;BME280;30576;42.098;24.876;2022-09-09T07:08:25;99958.56;;;24.60;47.94
44839;BME280;30576;42.098;24.876;2022-09-09T07:10:52;99939.13;;;24.42;47.25
44839;BME280;30576;42.098;24.876;2022-09-09T07:13:24;99966.34;;;25.03;46.36
44839;BME280;30576;42.098;24.876;2022-09-09T07:15:51;99968.50;;;25.24;45.58
44839;BME280;30576;42.098;24.876;2022-09-09T07:18:17;99953.84;;;24.77;46.52
44839;BME280;30576;42.098;24.876;2022-09-09T07:20:42;99921.91;;;24.71;44.86
44839;BME280;30576;42.098;24.876;2022-09-09T07:23:08;99935.25;;;25.24;45.83
44839;BME280;30576;42.098;24.876;2022-09-09T07:25:33;99956.50;;;25.78;44.31
44839;BME280;30576;42.098;24.876;2022-09-09T07:27:59;99925.94;;;26.02;43.37
44839;BME280;30576;42.098;24.876;2022-09-09T07:30:24;99948.09;;;26.54;45.05
44839;BME280;30576;42.098;24.876;2022-09-09T07:32:51;99946.19;;;26.78;42.46
44839;BME280;30576;42.098;24.876;2022-09-09T07:35:17;99941.84;;;25.94;41.59
44839;BME280;30576;42.098;24.876;2022-09-09T07:37:43;99937.53;;;25.67;44.50
44839;BME280;30576;42.098;24.876;2022-09-09T07:40:08;99929.50;;;25.28;43.47
44839;BME280;30576;42.098;24.876;2022-09-09T07:42:35;99925.53;;;25.21;43.83
44839;BME280;30576;42.098;24.876;2022-09-09T07:45:01;99942.97;;;25.54;44.52
44839;BME280;30576;42.098;24.876;2022-09-09T07:47:26;99943.16;;;25.64;42.49
44839;BME280;30576;42.098;24.876;2022-09-09T07:49:52;99922.72;;;25.35;43.44
44839;BME280;30576;42.098;24.876;2022-09-09T07:52:17;99952.88;;;25.66;44.89
44839;BME280;30576;42.098;24.876;2022-09-09T07:54:45;99879.09;;;26.25;41.62
44839;BME280;30576;42.098;24.876;2022-09-09T07:57:10;99925.91;;;27.18;39.95
44839;BME280;30576;42.098;24.876;2022-09-09T07:59:37;99930.84;;;27.47;39.83
44839;BME280;30576;42.098;24.876;2022-09-09T08:02:03;99910.72;;;27.72;41.57
44839;BME280;30576;42.098;24.876;2022-09-09T08:04:29;99918.66;;;27.85;39.72
44839;BME280;30576;42.098;24.876;2022-09-09T08:06:57;99915.19;;;27.94;39.10
44839;BME280;30576;42.098;24.876;2022-09-09T08:09:23;99898.69;;;27.31;40.45
44839;BME280;30576;42.098;24.876;2022-09-09T08:11:52;99856.00;;;27.46;40.48
44839;BME280;30576;42.098;24.876;2022-09-09T08:14:17;99902.28;;;27.86;38.02
44839;BME280;30576;42.098;24.876;2022-09-09T08:16:45;99896.84;;;27.98;37.99
44839;BME280;30576;42.098;24.876;2022-09-09T08:19:11;99925.59;;;28.43;37.76
44839;BME280;30576;42.098;24.876;2022-09-09T08:21:39;99892.69;;;28.57;38.59
44839;BME280;30576;42.098;24.876;2022-09-09T08:24:06;99882.41;;;28.82;39.22
44839;BME280;30576;42.098;24.876;2022-09-09T08:26:36;99921.78;;;28.97;38.25
44839;BME280;30576;42.098;24.876;2022-09-09T08:29:04;99853.34;;;28.63;38.13
44839;BME280;30576;42.098;24.876;2022-09-09T08:31:32;99888.84;;;28.17;38.52
44839;BME280;30576;42.098;24.876;2022-09-09T08:33:59;99901.44;;;27.86;39.39
44839;BME280;30576;42.098;24.876;2022-09-09T08:36:27;99893.47;;;27.73;40.51
44839;BME280;30576;42.098;24.876;2022-09-09T08:38:54;99894.03;;;27.99;39.58
44839;BME280;30576;42.098;24.876;2022-09-09T08:47:16;99896.06;;;28.07;40.48
44839;BME280;30576;42.098;24.876;2022-09-09T08:52:22;99875.28;;;27.52;41.57
44839;BME280;30576;42.098;24.876;2022-09-09T08:54:49;99904.47;;;28.04;40.26
44839;BME280;30576;42.098;24.876;2022-09-09T08:57:21;99884.31;;;27.85;40.97
44839;BME280;30576;42.098;24.876;2022-09-09T08:59:50;99884.41;;;27.95;41.25
44839;BME280;30576;42.098;24.876;2022-09-09T09:05:35;99881.13;;;27.37;43.73
44839;BME280;30576;42.098;24.876;2022-09-09T09:08:20;99871.09;;;27.92;40.63
44839;BME280;30576;42.098;24.876;2022-09-09T09:10:51;99880.19;;;28.23;40.44
44839;BME280;30576;42.098;24.876;2022-09-09T09:18:47;99822.91;;;27.63;40.35
44839;BME280;30576;42.098;24.876;2022-09-09T09:21:16;99877.16;;;28.17;40.52
44839;BME280;30576;42.098;24.876;2022-09-09T09:23:59;99838.00;;;27.56;40.21
44839;BME280;30576;42.098;24.876;2022-09-09T09:26:31;99868.16;;;27.95;40.83
44839;BME280;30576;42.098;24.876;2022-09-09T09:28:58;99865.03;;;28.00;41.45
44839;BME280;30576;42.098;24.876;2022-09-09T09:31:24;99846.47;;;27.95;40.80
44839;BME280;30576;42.098;24.876;2022-09-09T09:33:54;99822.66;;;28.20;40.02
44839;BME280;30576;42.098;24.876;2022-09-09T09:36:42;99846.53;;;28.26;40.72
44839;BME280;30576;42.098;24.876;2022-09-09T09:39:06;99838.69;;;27.91;42.82
44839;BME280;30576;42.098;24.876;2022-09-09T09:41:38;99838.66;;;28.23;41.51
44839;BME280;30576;42.098;24.876;2022-09-09T09:44:05;99825.22;;;28.43;40.26
44839;BME280;30576;42.098;24.876;2022-09-09T09:46:32;99809.56;;;28.56;39.02
44839;BME280;30576;42.098;24.876;2022-09-09T09:49:03;99832.91;;;28.58;39.05
44839;BME280;30576;42.098;24.876;2022-09-09T09:51:31;99816.97;;;28.02;40.27
44839;BME280;30576;42.098;24.876;2022-09-09T09:54:30;99824.59;;;27.43;40.93
44839;BME280;30576;42.098;24.876;2022-09-09T09:57:11;99828.69;;;27.91;40.14
44839;BME280;30576;42.098;24.876;2022-09-09T09:59:37;99821.84;;;27.87;40.06
44839;BME280;30576;42.098;24.876;2022-09-09T10:04:39;99788.03;;;27.91;40.31
44839;BME280;30576;42.098;24.876;2022-09-09T10:07:19;99799.84;;;27.48;40.99
44839;BME280;30576;42.098;24.876;2022-09-09T10:09:48;99788.06;;;27.70;40.58
44839;BME280;30576;42.098;24.876;2022-09-09T10:12:33;99793.78;;;28.09;40.10
44839;BME280;30576;42.098;24.876;2022-09-09T10:20:31;99803.59;;;27.89;40.53
44839;BME280;30576;42.098;24.876;2022-09-09T10:25:59;99787.66;;;28.38;39.66
44839;BME280;30576;42.098;24.876;2022-09-09T10:36:23;99787.94;;;28.35;39.93
44839;BME280;30576;42.098;24.876;2022-09-09T10:41:42;99759.44;;;28.50;40.02
44839;BME280;30576;42.098;24.876;2022-09-09T10:44:20;99741.22;;;28.31;39.19
44839;BME280;30576;42.098;24.876;2022-09-09T10:52:07;99770.84;;;28.85;39.05
44839;BME280;30576;42.098;24.876;2022-09-09T10:55:06;99776.44;;;28.93;39.28
44839;BME280;30576;42.098;24.876;2022-09-09T10:57:45;99768.56;;;28.80;38.04
44839;BME280;30576;42.098;24.876;2022-09-09T11:00:42;99741.13;;;28.83;39.14
44839;BME280;30576;42.098;24.876;2022-09-09T11:03:19;99730.16;;;28.85;38.75
44839;BME280;30576;42.098;24.876;2022-09-09T11:06:15;99750.47;;;29.00;38.40
44839;BME280;30576;42.098;24.876;2022-09-09T11:08:42;99731.94;;;29.25;37.93
44839;BME280;30576;42.098;24.876;2022-09-09T11:11:16;99715.31;;;28.89;39.47
44839;BME280;30576;42.098;24.876;2022-09-09T11:16:48;99746.38;;;29.45;39.29
44839;BME280;30576;42.098;24.876;2022-09-09T11:21:49;99731.75;;;29.07;39.12
44839;BME280;30576;42.098;24.876;2022-09-09T11:27:02;99731.22;;;29.42;38.95
44839;BME280;30576;42.098;24.876;2022-09-09T11:42:44;99662.59;;;29.11;39.80
44839;BME280;30576;42.098;24.876;2022-09-09T11:45:23;99708.34;;;29.25;39.59
44839;BME280;30576;42.098;24.876;2022-09-09T11:47:52;99703.50;;;29.29;38.02
44839;BME280;30576;42.098;24.876;2022-09-09T11:52:48;99709.16;;;29.75;37.23
44839;BME280;30576;42.098;24.876;2022-09-09T11:55:33;99700.75;;;29.58;37.03
44839;BME280;30576;42.098;24.876;2022-09-09T12:00:41;99666.88;;;29.33;38.72
44839;BME280;30576;42.098;24.876;2022-09-09T12:06:28;99695.69;;;29.73;38.13
44839;BME280;30576;42.098;24.876;2022-09-09T12:09:08;99674.78;;;29.93;35.95
44839;BME280;30576;42.098;24.876;2022-09-09T12:11:36;99664.34;;;29.98;37.07
44839;BME280;30576;42.098;24.876;2022-09-09T12:14:02;99673.78;;;30.32;36.44
44839;BME280;30576;42.098;24.876;2022-09-09T12:16:33;99654.13;;;30.48;36.20
44839;BME280;30576;42.098;24.876;2022-09-09T12:19:18;99648.59;;;30.58;37.20
44839;BME280;30576;42.098;24.876;2022-09-09T12:24:37;99648.50;;;30.22;36.49
44839;BME280;30576;42.098;24.876;2022-09-09T12:27:27;99643.63;;;30.53;35.48
44839;BME280;30576;42.098;24.876;2022-09-09T12:30:08;99621.75;;;30.17;36.61
44839;BME280;30576;42.098;24.876;2022-09-09T12:32:35;99652.19;;;30.76;37.06
44839;BME280;30576;42.098;24.876;2022-09-09T12:35:26;99655.94;;;30.93;36.08
44839;BME280;30576;42.098;24.876;2022-09-09T12:38:00;99628.50;;;31.04;36.83
44839;BME280;30576;42.098;24.876;2022-09-09T12:40:32;99632.22;;;30.85;34.83
44839;BME280;30576;42.098;24.876;2022-09-09T12:43:00;99620.69;;;30.74;36.75
44839;BME280;30576;42.098;24.876;2022-09-09T12:45:29;99600.09;;;30.25;36.38
44839;BME280;30576;42.098;24.876;2022-09-09T12:47:57;99632.03;;;30.69;35.45
44839;BME280;30576;42.098;24.876;2022-09-09T12:50:31;99599.31;;;30.61;36.51
44839;BME280;30576;42.098;24.876;2022-09-09T12:53:00;99596.50;;;30.70;37.27
44839;BME280;30576;42.098;24.876;2022-09-09T12:55:36;99626.97;;;31.02;36.17
44839;BME280;30576;42.098;24.876;2022-09-09T12:58:04;99605.63;;;30.79;35.88
44839;BME280;30576;42.098;24.876;2022-09-09T13:00:32;99605.06;;;30.76;36.73
44839;BME280;30576;42.098;24.876;2022-09-09T13:03:00;99612.97;;;30.69;36.59
44839;BME280;30576;42.098;24.876;2022-09-09T13:05:37;99579.41;;;30.60;36.85
44839;BME280;30576;42.098;24.876;2022-09-09T13:08:06;99602.31;;;30.94;36.01
44839;BME280;30576;42.098;24.876;2022-09-09T13:10:46;99589.25;;;31.15;35.31
44839;BME280;30576;42.098;24.876;2022-09-09T13:13:21;99574.09;;;30.95;36.10
44839;BME280;30576;42.098;24.876;2022-09-09T13:15:53;99602.72;;;31.17;35.71
44839;BME280;30576;42.098;24.876;2022-09-09T13:18:23;99594.31;;;31.28;36.76
44839;BME280;30576;42.098;24.876;2022-09-09T13:20:49;99577.03;;;31.19;35.52
44839;BME280;30576;42.098;24.876;2022-09-09T13:23:17;99574.16;;;31.21;35.41
44839;BME280;30576;42.098;24.876;2022-09-09T13:25:59;99561.78;;;31.27;35.47
44839;BME280;30576;42.098;24.876;2022-09-09T13:28:28;99600.41;;;31.04;36.45
44839;BME280;30576;42.098;24.876;2022-09-09T13:33:30;99533.94;;;30.97;35.96
44839;BME280;30576;42.098;24.876;2022-09-09T13:35:59;99579.94;;;31.00;35.91
44839;BME280;30576;42.098;24.876;2022-09-09T13:38:28;99559.69;;;31.20;35.92
44839;BME280;30576;42.098;24.876;2022-09-09T13:41:06;99584.66;;;31.60;35.29
44839;BME280;30576;42.098;24.876;2022-09-09T13:43:52;99562.16;;;31.32;35.22
44839;BME280;30576;42.098;24.876;2022-09-09T13:46:36;99573.56;;;31.35;35.30
44839;BME280;30576;42.098;24.876;2022-09-09T13:51:38;99550.91;;;31.09;35.43
44839;BME280;30576;42.098;24.876;2022-09-09T13:54:05;99551.72;;;31.01;35.63
44839;BME280;30576;42.098;24.876;2022-09-09T13:56:35;99551.53;;;30.84;36.02
44839;BME280;30576;42.098;24.876;2022-09-09T13:59:01;99539.13;;;30.82;35.94
44839;BME280;30576;42.098;24.876;2022-09-09T14:01:27;99547.75;;;30.77;37.53
44839;BME280;30576;42.098;24.876;2022-09-09T14:03:53;99534.09;;;30.95;36.45
44839;BME280;30576;42.098;24.876;2022-09-09T14:06:19;99531.50;;;30.49;39.52
44839;BME280;30576;42.098;24.876;2022-09-09T14:08:47;99514.09;;;30.60;37.82
44839;BME280;30576;42.098;24.876;2022-09-09T14:11:13;99533.19;;;30.50;40.34
44839;BME280;30576;42.098;24.876;2022-09-09T14:13:39;99520.53;;;30.59;39.42
44839;BME280;30576;42.098;24.876;2022-09-09T14:16:04;99552.72;;;30.46;38.47
44839;BME280;30576;42.098;24.876;2022-09-09T14:18:29;99538.66;;;30.05;38.67
44839;BME280;30576;42.098;24.876;2022-09-09T14:20:55;99548.56;;;30.24;40.25
44839;BME280;30576;42.098;24.876;2022-09-09T14:23:22;99553.53;;;30.28;39.24
44839;BME280;30576;42.098;24.876;2022-09-09T14:25:47;99535.56;;;30.17;39.14
44839;BME280;30576;42.098;24.876;2022-09-09T14:28:14;99482.63;;;30.12;38.94
44839;BME280;30576;42.098;24.876;2022-09-09T14:30:41;99532.13;;;30.43;40.21
44839;BME280;30576;42.098;24.876;2022-09-09T14:33:09;99527.56;;;30.16;38.58
44839;BME280;30576;42.098;24.876;2022-09-09T14:35:35;99540.16;;;30.17;37.94
44839;BME280;30576;42.098;24.876;2022-09-09T14:38:02;99545.19;;;29.84;39.10
44839;BME280;30576;42.098;24.876;2022-09-09T14:40:28;99534.13;;;29.95;39.39
44839;BME280;30576;42.098;24.876;2022-09-09T14:42:53;99532.97;;;29.98;39.48
44839;BME280;30576;42.098;24.876;2022-09-09T14:45:19;99487.75;;;29.97;38.98
44839;BME280;30576;42.098;24.876;2022-09-09T14:47:46;99516.25;;;29.93;38.67
44839;BME280;30576;42.098;24.876;2022-09-09T14:50:12;99499.72;;;29.76;39.37
44839;BME280;30576;42.098;24.876;2022-09-09T14:52:39;99505.72;;;29.52;39.86
44839;BME280;30576;42.098;24.876;2022-09-09T14:55:04;99524.44;;;29.45;40.19
44839;BME280;30576;42.098;24.876;2022-09-09T14:57:31;99540.75;;;29.45;39.78
44839;BME280;30576;42.098;24.876;2022-09-09T14:59:56;99517.28;;;29.54;40.03
44839;BME280;30576;42.098;24.876;2022-09-09T15:02:22;99511.47;;;29.39;40.54
44839;BME280;30576;42.098;24.876;2022-09-09T15:04:47;99515.94;;;29.31;40.25